createdAt,value
2023-04-27T00:00:13.783Z,100105.70
2023-04-27T00:02:57.475Z,100106.77
2023-04-27T00:05:21.823Z,100105.73
2023-04-27T00:07:45.455Z,100106.96
2023-04-27T00:10:10.876Z,100107.48
2023-04-27T00:12:34.524Z,100110.92
2023-04-27T00:14:58.093Z,100106.96
2023-04-27T00:17:22.283Z,100111.45
2023-04-27T00:19:46.920Z,100110.92
2023-04-27T00:22:15.858Z,100108.70
2023-04-27T00:24:41.265Z,100107.17
2023-04-27T00:27:05.161Z,100106.00
2023-04-27T00:29:28.600Z,100107.55
2023-04-27T00:31:52.231Z,100106.70
2023-04-27T00:34:16.038Z,100113.41
2023-04-27T00:36:44.835Z,100114.63
2023-04-27T00:39:09.648Z,100116.70
2023-04-27T00:41:38.998Z,100117.39
2023-04-27T00:44:02.591Z,100119.60
2023-04-27T00:46:27.346Z,100123.05
2023-04-27T00:48:50.992Z,100119.45
2023-04-27T00:51:35.566Z,100122.58
2023-04-27T00:54:00.305Z,100121.20
2023-04-27T00:56:24.321Z,100126.89
2023-04-27T00:58:51.638Z,100125.88
2023-04-27T01:01:16.052Z,100122.96
2023-04-27T01:03:39.846Z,100128.98
2023-04-27T01:06:04.389Z,100128.29
2023-04-27T01:08:28.423Z,100132.94
2023-04-27T01:10:52.333Z,100132.77
2023-04-27T01:13:19.280Z,100134.48
2023-04-27T01:15:42.808Z,100135.70
2023-04-27T01:18:06.613Z,100138.29
2023-04-27T01:20:31.372Z,100138.30
2023-04-27T01:22:55.807Z,100136.25
2023-04-27T01:25:19.994Z,100134.36
2023-04-27T01:27:44.562Z,100137.13
2023-04-27T01:30:09.198Z,100139.36
2023-04-27T01:32:32.639Z,100140.55
2023-04-27T01:34:58.382Z,100139.70
2023-04-27T01:37:22.859Z,100139.36
2023-04-27T01:39:47.405Z,100140.90
2023-04-27T01:42:11.025Z,100143.31
2023-04-27T01:44:36.186Z,100137.13
2023-04-27T01:47:00.280Z,100137.64
2023-04-27T01:49:24.362Z,100142.63
2023-04-27T01:51:47.910Z,100143.14
2023-04-27T01:54:12.120Z,100146.05
2023-04-27T01:56:35.692Z,100149.14
2023-04-27T01:58:59.077Z,100150.86
2023-04-27T02:01:22.660Z,100152.92
2023-04-27T02:03:49.536Z,100155.84
2023-04-27T02:06:13.230Z,100155.35
2023-04-27T02:08:36.806Z,100155.88
2023-04-27T02:11:00.542Z,100154.19
2023-04-27T02:13:24.005Z,100150.75
2023-04-27T02:15:47.409Z,100149.04
2023-04-27T02:18:12.068Z,100153.33
2023-04-27T02:20:35.622Z,100151.29
2023-04-27T02:22:59.495Z,100148.37
2023-04-27T02:25:23.276Z,100151.48
2023-04-27T02:27:46.740Z,100147.52
2023-04-27T02:30:12.590Z,100143.73
2023-04-27T02:32:36.897Z,100144.94
2023-04-27T02:35:01.382Z,100146.48
2023-04-27T02:37:25.606Z,100147.86
2023-04-27T02:39:49.249Z,100146.66
2023-04-27T02:42:12.712Z,100153.02
2023-04-27T02:44:36.136Z,100154.56
2023-04-27T02:46:59.961Z,100158.35
2023-04-27T02:49:23.657Z,100160.23
2023-04-27T02:51:47.202Z,100159.73
2023-04-27T02:54:13.223Z,100158.88
2023-04-27T02:56:39.736Z,100159.55
2023-04-27T02:59:06.707Z,100161.09
2023-04-27T03:01:32.676Z,100162.63
2023-04-27T03:03:56.369Z,100161.61
2023-04-27T03:06:21.578Z,100162.13
2023-04-27T03:08:45.338Z,100164.04
2023-04-27T03:11:09.146Z,100162.15
2023-04-27T03:13:38.060Z,100162.98
2023-04-27T03:16:04.130Z,100167.62
2023-04-27T03:18:29.769Z,100164.70
2023-04-27T03:20:53.339Z,100166.09
2023-04-27T03:23:37.576Z,100166.45
2023-04-27T03:26:15.216Z,100165.40
2023-04-27T03:28:39.634Z,100166.08
2023-04-27T03:31:06.883Z,100163.67
2023-04-27T03:33:30.219Z,100168.30
2023-04-27T03:35:57.390Z,100169.66
2023-04-27T03:38:21.015Z,100171.41
2023-04-27T03:40:46.309Z,100167.13
2023-04-27T03:43:10.203Z,100168.67
2023-04-27T03:45:33.860Z,100168.32
2023-04-27T03:47:57.533Z,100172.25
2023-04-27T03:50:23.924Z,100177.05
2023-04-27T03:52:47.431Z,100185.45
2023-04-27T03:55:11.916Z,100187.34
2023-04-27T03:57:36.646Z,100187.86
2023-04-27T04:00:00.108Z,100197.12
2023-04-27T04:02:23.980Z,100200.91
2023-04-27T04:04:47.982Z,100198.85
2023-04-27T04:07:11.501Z,100202.62
2023-04-27T04:09:35.861Z,100204.16
2023-04-27T04:11:59.750Z,100205.53
2023-04-27T04:14:23.291Z,100205.86
2023-04-27T04:16:46.598Z,100204.33
2023-04-27T04:19:10.465Z,100210.15
2023-04-27T04:21:34.001Z,100212.02
2023-04-27T04:23:57.399Z,100206.69
2023-04-27T04:26:23.031Z,100209.94
2023-04-27T04:28:46.406Z,100208.18
2023-04-27T04:31:10.151Z,100213.46
2023-04-27T04:33:34.284Z,100208.96
2023-04-27T04:35:58.268Z,100208.03
2023-04-27T04:38:22.959Z,100212.74
2023-04-27T04:40:46.876Z,100205.50
2023-04-27T04:43:11.583Z,100209.19
2023-04-27T04:45:35.293Z,100207.91
2023-04-27T04:48:00.814Z,100202.63
2023-04-27T04:50:27.037Z,100202.65
2023-04-27T04:52:50.482Z,100194.63
2023-04-27T04:55:14.826Z,100188.98
2023-04-27T04:57:38.284Z,100188.15
2023-04-27T05:00:06.050Z,100184.02
2023-04-27T05:02:30.837Z,100183.85
2023-04-27T05:04:56.513Z,100184.84
2023-04-27T05:07:24.138Z,100182.18
2023-04-27T05:09:48.368Z,100183.38
2023-04-27T05:12:11.864Z,100184.66
2023-04-27T05:14:35.505Z,100185.86
2023-04-27T05:16:59.190Z,100192.62
2023-04-27T05:19:22.560Z,100189.77
2023-04-27T05:21:45.993Z,100183.98
2023-04-27T05:24:09.563Z,100184.53
2023-04-27T05:26:32.905Z,100181.40
2023-04-27T05:28:56.219Z,100180.19
2023-04-27T05:31:20.060Z,100181.63
2023-04-27T05:33:43.363Z,100188.02
2023-04-27T05:36:07.628Z,100184.13
2023-04-27T05:38:32.896Z,100185.70
2023-04-27T05:40:56.766Z,100184.96
2023-04-27T05:43:20.113Z,100183.13
2023-04-27T05:45:43.940Z,100188.16
2023-04-27T05:48:07.436Z,100186.39
2023-04-27T05:50:31.050Z,100188.13
2023-04-27T05:52:54.573Z,100187.45
2023-04-27T05:55:17.919Z,100187.70
2023-04-27T05:57:41.427Z,100190.83
2023-04-27T06:00:10.091Z,100188.26
2023-04-27T06:02:36.530Z,100187.48
2023-04-27T06:05:00.262Z,100188.63
2023-04-27T06:07:23.922Z,100194.36
2023-04-27T06:09:47.467Z,100198.27
2023-04-27T06:12:10.834Z,100197.38
2023-04-27T06:14:35.860Z,100201.56
2023-04-27T06:16:59.380Z,100199.58
2023-04-27T06:19:22.688Z,100194.39
2023-04-27T06:21:46.212Z,100195.45
2023-04-27T06:24:09.642Z,100195.59
2023-04-27T06:26:33.171Z,100200.53
2023-04-27T06:28:56.793Z,100199.31
2023-04-27T06:31:20.369Z,100199.59
2023-04-27T06:33:43.879Z,100200.08
2023-04-27T06:36:08.049Z,100199.17
2023-04-27T06:38:31.473Z,100202.61
2023-04-27T06:40:54.983Z,100196.59
2023-04-27T06:43:19.473Z,100194.44
2023-04-27T06:45:43.316Z,100200.72
2023-04-27T06:48:07.084Z,100202.25
2023-04-27T06:50:31.110Z,100203.38
2023-04-27T06:52:54.455Z,100201.64
2023-04-27T06:55:17.919Z,100208.06
2023-04-27T06:57:41.676Z,100208.84
2023-04-27T07:00:07.162Z,100213.83
2023-04-27T07:02:30.675Z,100209.92
2023-04-27T07:04:54.950Z,100214.82
2023-04-27T07:07:18.571Z,100215.05
2023-04-27T07:09:42.032Z,100211.71
2023-04-27T07:12:06.149Z,100206.45
2023-04-27T07:14:29.946Z,100214.22
2023-04-27T07:16:53.318Z,100214.45
2023-04-27T07:19:17.276Z,100214.98
2023-04-27T07:21:40.689Z,100213.90
2023-04-27T07:24:04.539Z,100219.64
2023-04-27T07:26:28.698Z,100219.48
2023-04-27T07:28:52.078Z,100218.91
2023-04-27T07:31:15.502Z,100222.20
2023-04-27T07:33:39.124Z,100224.71
2023-04-27T07:36:04.030Z,100224.48
2023-04-27T07:38:28.355Z,100226.73
2023-04-27T07:40:52.119Z,100224.31
2023-04-27T07:43:15.678Z,100223.68
2023-04-27T07:45:40.815Z,100225.14
2023-04-27T07:48:05.604Z,100225.44
2023-04-27T07:50:29.822Z,100227.04
2023-04-27T07:52:53.901Z,100225.88
2023-04-27T07:55:17.753Z,100222.30
2023-04-27T07:57:41.126Z,100223.63
2023-04-27T08:00:08.390Z,100229.21
2023-04-27T08:02:36.602Z,100229.06
2023-04-27T08:05:02.473Z,100235.82
2023-04-27T08:07:26.995Z,100232.98
2023-04-27T08:09:51.991Z,100236.23
2023-04-27T08:12:15.376Z,100234.48
2023-04-27T08:14:38.691Z,100237.95
2023-04-27T08:17:02.537Z,100237.23
2023-04-27T08:19:26.321Z,100238.48
2023-04-27T08:21:49.701Z,100236.82
2023-04-27T08:24:13.364Z,100232.17
2023-04-27T08:26:37.187Z,100235.33
2023-04-27T08:29:08.773Z,100237.85
2023-04-27T08:31:39.879Z,100232.95
2023-04-27T08:34:03.651Z,100236.83
2023-04-27T08:36:28.003Z,100233.71
2023-04-27T08:38:52.386Z,100239.36
2023-04-27T08:41:22.208Z,100235.87
2023-04-27T08:43:46.268Z,100231.41
2023-04-27T08:46:09.813Z,100227.13
2023-04-27T08:48:33.266Z,100230.67
2023-04-27T08:50:59.291Z,100231.40
2023-04-27T08:53:23.922Z,100225.64
2023-04-27T08:55:47.602Z,100226.14
2023-04-27T08:58:10.929Z,100223.88
2023-04-27T09:00:41.829Z,100229.79
2023-04-27T09:03:05.850Z,100228.30
2023-04-27T09:05:30.086Z,100232.48
2023-04-27T09:08:01.646Z,100238.40
2023-04-27T09:10:25.134Z,100245.81
2023-04-27T09:12:56.678Z,100251.11
2023-04-27T09:15:20.653Z,100260.56
2023-04-27T09:17:45.401Z,100264.23
2023-04-27T09:20:12.577Z,100272.13
2023-04-27T09:22:44.586Z,100270.96
2023-04-27T09:25:09.009Z,100278.00
2023-04-27T09:27:37.571Z,100274.09
2023-04-27T09:30:01.382Z,100280.77
2023-04-27T09:32:27.653Z,100279.52
2023-04-27T09:34:51.108Z,100274.60
2023-04-27T09:37:18.520Z,100277.14
2023-04-27T09:39:42.899Z,100275.92
2023-04-27T09:42:15.963Z,100272.57
2023-04-27T09:44:40.130Z,100271.40
2023-04-27T09:47:04.568Z,100276.30
2023-04-27T09:49:28.923Z,100280.17
2023-04-27T09:51:56.614Z,100276.36
2023-04-27T09:54:27.269Z,100277.60
2023-04-27T09:57:01.286Z,100282.96
2023-04-27T09:59:48.329Z,100283.10
2023-04-27T10:02:25.658Z,100280.27
2023-04-27T10:05:16.842Z,100283.65
2023-04-27T10:07:41.491Z,100283.44
2023-04-27T10:10:06.698Z,100285.74
2023-04-27T10:12:35.982Z,100289.69
2023-04-27T10:15:11.867Z,100289.15
2023-04-27T10:17:36.817Z,100289.02
2023-04-27T10:20:02.736Z,100286.84
2023-04-27T10:22:38.883Z,100286.08
2023-04-27T10:25:14.422Z,100290.48
2023-04-27T10:27:40.513Z,100293.60
2023-04-27T10:30:11.602Z,100289.61
2023-04-27T10:32:35.284Z,100289.55
2023-04-27T10:35:06.995Z,100291.48
2023-04-27T10:37:40.735Z,100290.83
2023-04-27T10:40:10.130Z,100290.08
2023-04-27T10:42:33.581Z,100296.25
2023-04-27T10:44:58.539Z,100294.07
2023-04-27T10:47:44.554Z,100288.69
2023-04-27T10:50:13.705Z,100287.20
2023-04-27T10:52:42.314Z,100283.95
2023-04-27T10:55:16.777Z,100284.87
2023-04-27T10:57:48.114Z,100290.69
2023-04-27T11:00:16.454Z,100293.54
2023-04-27T11:03:13.810Z,100291.99
2023-04-27T11:05:38.146Z,100296.61
2023-04-27T11:08:09.507Z,100298.74
2023-04-27T11:10:34.806Z,100299.23
2023-04-27T11:12:58.767Z,100305.35
2023-04-27T11:15:22.802Z,100304.95
2023-04-27T11:17:46.483Z,100305.79
2023-04-27T11:20:10.870Z,100305.48
2023-04-27T11:22:34.585Z,100305.29
2023-04-27T11:25:00.267Z,100307.02
2023-04-27T11:27:24.731Z,100313.62
2023-04-27T11:29:48.290Z,100308.88
2023-04-27T11:32:20.489Z,100308.91
2023-04-27T11:34:50.166Z,100307.64
2023-04-27T11:37:23.784Z,100308.04
2023-04-27T11:40:13.369Z,100301.63
2023-04-27T11:42:42.848Z,100299.46
2023-04-27T11:45:12.334Z,100302.71
2023-04-27T11:47:36.093Z,100300.90
2023-04-27T11:50:23.689Z,100300.31
2023-04-27T11:52:50.369Z,100295.36
2023-04-27T11:55:15.338Z,100291.45
2023-04-27T11:57:39.560Z,100290.95
2023-04-27T12:00:10.109Z,100289.63
2023-04-27T12:02:40.117Z,100289.50
2023-04-27T12:05:04.793Z,100292.15
2023-04-27T12:07:31.080Z,100290.73
2023-04-27T12:09:55.081Z,100288.39
2023-04-27T12:12:21.312Z,100290.05
2023-04-27T12:14:45.347Z,100288.80
2023-04-27T12:17:08.968Z,100295.91
2023-04-27T12:19:32.511Z,100295.16
2023-04-27T12:21:57.609Z,100291.83
2023-04-27T12:24:37.349Z,100295.02
2023-04-27T12:27:04.716Z,100296.33
2023-04-27T12:29:37.699Z,100295.30
2023-04-27T12:32:04.644Z,100292.25
2023-04-27T12:34:39.157Z,100295.31
2023-04-27T12:37:24.880Z,100293.65
2023-04-27T12:39:50.632Z,100287.55
2023-04-27T12:42:34.652Z,100286.37
2023-04-27T12:44:58.447Z,100284.92
2023-04-27T12:47:45.771Z,100287.15
2023-04-27T12:50:09.777Z,100294.00
2023-04-27T12:52:33.412Z,100289.82
2023-04-27T12:54:59.017Z,100294.51
2023-04-27T12:57:23.139Z,100297.73
2023-04-27T12:59:46.644Z,100303.23
2023-04-27T13:02:13.004Z,100300.05
2023-04-27T13:04:37.227Z,100302.01
2023-04-27T13:07:00.895Z,100305.29
2023-04-27T13:09:45.214Z,100305.31
2023-04-27T13:12:13.362Z,100304.25
2023-04-27T13:14:36.725Z,100309.05
2023-04-27T13:17:04.021Z,100307.20
2023-04-27T13:19:27.371Z,100308.09
2023-04-27T13:22:12.769Z,100306.41
2023-04-27T13:24:57.448Z,100310.88
2023-04-27T13:27:40.718Z,100313.06
2023-04-27T13:30:09.960Z,100315.09
2023-04-27T13:32:42.686Z,100317.65
2023-04-27T13:35:26.994Z,100320.41
2023-04-27T13:37:53.390Z,100328.11
2023-04-27T13:40:20.918Z,100322.59
2023-04-27T13:42:51.513Z,100321.95
2023-04-27T13:45:15.160Z,100322.56
2023-04-27T13:47:39.982Z,100320.96
2023-04-27T13:50:05.270Z,100317.54
2023-04-27T13:52:32.446Z,100322.13
2023-04-27T13:54:59.077Z,100321.58
2023-04-27T13:57:22.545Z,100321.68
2023-04-27T13:59:55.278Z,100320.26
2023-04-27T14:02:30.345Z,100326.07
2023-04-27T14:04:54.529Z,100328.86
2023-04-27T14:07:23.428Z,100325.29
2023-04-27T14:09:47.200Z,100325.15
2023-04-27T14:12:14.065Z,100329.44
2023-04-27T14:14:47.481Z,100324.90
2023-04-27T14:17:31.811Z,100325.39
2023-04-27T14:19:55.828Z,100326.06
2023-04-27T14:22:31.127Z,100329.80
2023-04-27T14:24:56.949Z,100336.09
2023-04-27T14:27:20.498Z,100334.88
2023-04-27T14:29:47.456Z,100340.11
2023-04-27T14:32:12.241Z,100333.08
2023-04-27T14:34:38.744Z,100334.09
2023-04-27T14:37:22.763Z,100341.19
2023-04-27T14:39:46.846Z,100342.45
2023-04-27T14:42:10.266Z,100344.48
2023-04-27T14:44:48.717Z,100341.66
2023-04-27T14:47:33.646Z,100342.17
2023-04-27T14:50:18.620Z,100348.08
2023-04-27T14:53:02.516Z,100346.70
2023-04-27T14:55:29.682Z,100342.27
2023-04-27T14:57:53.166Z,100347.86
2023-04-27T15:00:18.146Z,100350.34
2023-04-27T15:02:42.053Z,100349.93
2023-04-27T15:05:12.725Z,100354.98
2023-04-27T15:07:38.220Z,100361.30
2023-04-27T15:10:06.662Z,100362.91
2023-04-27T15:12:31.324Z,100362.16
2023-04-27T15:15:08.715Z,100367.86
2023-04-27T15:17:34.332Z,100367.70
2023-04-27T15:20:19.382Z,100372.89
2023-04-27T15:22:43.707Z,100371.23
2023-04-27T15:25:09.352Z,100368.66
2023-04-27T15:27:54.829Z,100364.50
2023-04-27T15:30:18.578Z,100362.21
2023-04-27T15:32:43.148Z,100368.23
2023-04-27T15:35:28.067Z,100368.05
2023-04-27T15:37:53.006Z,100369.34
2023-04-27T15:40:30.188Z,100371.08
2023-04-27T15:43:14.401Z,100372.77
2023-04-27T15:45:58.094Z,100372.67
2023-04-27T15:48:32.738Z,100377.95
2023-04-27T15:51:16.797Z,100378.51
2023-04-27T15:53:54.322Z,100378.20
2023-04-27T15:56:19.517Z,100378.59
2023-04-27T15:58:42.943Z,100382.63
2023-04-27T16:01:27.259Z,100382.98
2023-04-27T16:04:04.020Z,100389.45
2023-04-27T16:06:32.438Z,100389.98
2023-04-27T16:08:58.713Z,100392.60
2023-04-27T16:11:22.360Z,100394.33
2023-04-27T16:13:57.686Z,100388.27
2023-04-27T16:16:41.610Z,100392.09
2023-04-27T16:19:25.842Z,100387.97
2023-04-27T16:22:09.649Z,100392.25
2023-04-27T16:24:45.421Z,100392.27
2023-04-27T16:27:13.736Z,100392.45
2023-04-27T16:29:37.214Z,100393.14
2023-04-27T16:32:12.836Z,100391.92
2023-04-27T16:34:39.625Z,100390.40
2023-04-27T16:37:03.282Z,100397.55
2023-04-27T16:39:47.460Z,100394.59
2023-04-27T16:42:12.740Z,100392.30
2023-04-27T16:44:39.296Z,100391.81
2023-04-27T16:47:03.366Z,100396.02
2023-04-27T16:49:29.371Z,100398.27
2023-04-27T16:51:55.921Z,100400.21
2023-04-27T16:54:20.490Z,100402.85
2023-04-27T16:56:55.083Z,100403.60
2023-04-27T16:59:21.289Z,100407.14
2023-04-27T17:01:52.351Z,100409.65
2023-04-27T17:04:19.315Z,100412.84
2023-04-27T17:07:03.535Z,100416.38
2023-04-27T17:09:27.399Z,100415.74
2023-04-27T17:11:50.819Z,100419.86
2023-04-27T17:14:15.002Z,100420.45
2023-04-27T17:16:59.659Z,100422.45
2023-04-27T17:19:43.913Z,100411.84
2023-04-27T17:22:29.322Z,100412.02
2023-04-27T17:24:55.935Z,100413.48
2023-04-27T17:27:24.532Z,100411.98
2023-04-27T17:30:10.364Z,100407.27
2023-04-27T17:32:34.015Z,100416.45
2023-04-27T17:35:20.044Z,100413.94
2023-04-27T17:37:48.651Z,100415.75
2023-04-27T17:40:33.410Z,100415.34
2023-04-27T17:43:04.247Z,100417.02
2023-04-27T17:45:28.392Z,100418.48
2023-04-27T17:47:55.300Z,100421.55
2023-04-27T17:50:30.204Z,100422.98
2023-04-27T17:52:57.293Z,100422.10
2023-04-27T17:55:21.034Z,100423.42
2023-04-27T17:57:44.382Z,100423.20
2023-04-27T18:00:10.682Z,100422.16
2023-04-27T18:02:34.789Z,100428.08
2023-04-27T18:04:58.566Z,100435.48
2023-04-27T18:07:23.193Z,100435.51
2023-04-27T18:09:46.762Z,100438.81
2023-04-27T18:12:10.558Z,100440.95
2023-04-27T18:14:34.656Z,100444.48
2023-04-27T18:16:58.008Z,100449.78
2023-04-27T18:19:22.099Z,100456.13
2023-04-27T18:21:45.894Z,100455.34
2023-04-27T18:24:09.963Z,100455.90
2023-04-27T18:26:35.950Z,100456.63
2023-04-27T18:28:59.959Z,100458.22
2023-04-27T18:31:25.819Z,100459.26
2023-04-27T18:33:52.417Z,100460.86
2023-04-27T18:36:34.011Z,100461.62
2023-04-27T18:38:57.786Z,100463.00
2023-04-27T18:41:23.720Z,100462.13
2023-04-27T18:43:52.484Z,100461.93
2023-04-27T18:46:16.115Z,100465.37
2023-04-27T18:49:01.192Z,100466.54
2023-04-27T18:51:28.480Z,100468.10
2023-04-27T18:53:55.464Z,100467.41
2023-04-27T18:56:19.523Z,100467.41
2023-04-27T18:59:03.252Z,100469.16
2023-04-27T19:01:37.691Z,100472.29
2023-04-27T19:04:11.157Z,100474.53
2023-04-27T19:06:37.501Z,100469.70
2023-04-27T19:09:11.215Z,100472.66
2023-04-27T19:11:46.765Z,100468.20
2023-04-27T19:14:33.507Z,100466.99
2023-04-27T19:17:18.161Z,100467.90
2023-04-27T19:19:52.967Z,100468.63
2023-04-27T19:22:28.742Z,100468.82
2023-04-27T19:25:12.516Z,100469.86
2023-04-27T19:27:45.599Z,100471.95
2023-04-27T19:30:12.451Z,100469.39
2023-04-27T19:32:36.232Z,100472.42
2023-04-27T19:35:00.153Z,100473.83
2023-04-27T19:37:34.674Z,100475.44
2023-04-27T19:39:58.137Z,100480.31
2023-04-27T19:42:21.706Z,100477.38
2023-04-27T19:44:45.248Z,100478.63
2023-04-27T19:47:10.347Z,100478.50
2023-04-27T19:49:34.456Z,100481.62
2023-04-27T19:51:57.855Z,100481.63
2023-04-27T19:54:21.378Z,100481.48
2023-04-27T19:56:49.698Z,100480.97
2023-04-27T19:59:33.923Z,100478.41
2023-04-27T20:02:17.482Z,100480.36
2023-04-27T20:04:52.776Z,100480.60
2023-04-27T20:07:37.423Z,100482.76
2023-04-27T20:10:13.910Z,100485.21
2023-04-27T20:12:54.240Z,100484.23
2023-04-27T20:15:19.530Z,100488.63
2023-04-27T20:17:43.283Z,100490.09
2023-04-27T20:20:09.858Z,100493.45
2023-04-27T20:22:33.724Z,100493.65
2023-04-27T20:24:58.611Z,100492.50
2023-04-27T20:27:25.155Z,100498.10
2023-04-27T20:29:56.704Z,100498.71
2023-04-27T20:32:23.283Z,100498.04
2023-04-27T20:34:55.622Z,100501.73
2023-04-27T20:37:19.315Z,100502.67
2023-04-27T20:39:53.366Z,100507.05
2023-04-27T20:42:20.233Z,100507.79
2023-04-27T20:44:47.808Z,100510.58
2023-04-27T20:47:23.097Z,100510.30
2023-04-27T20:49:49.751Z,100513.80
2023-04-27T20:52:15.248Z,100515.58
2023-04-27T20:54:39.150Z,100511.65
2023-04-27T20:57:07.853Z,100515.11
2023-04-27T20:59:31.942Z,100511.88
2023-04-27T21:02:00.476Z,100516.41
2023-04-27T21:04:44.360Z,100514.70
2023-04-27T21:07:28.381Z,100516.64
2023-04-27T21:10:12.072Z,100517.73
2023-04-27T21:12:44.789Z,100516.02
2023-04-27T21:15:10.203Z,100518.28
2023-04-27T21:17:54.174Z,100519.17
2023-04-27T21:20:20.775Z,100518.51
2023-04-27T21:23:04.858Z,100519.74
2023-04-27T21:25:31.179Z,100518.73
2023-04-27T21:27:56.907Z,100519.80
2023-04-27T21:30:41.477Z,100515.30
2023-04-27T21:33:25.317Z,100520.80
2023-04-27T21:36:10.053Z,100520.15
2023-04-27T21:38:36.395Z,100520.84
2023-04-27T21:41:02.442Z,100519.11
2023-04-27T21:43:35.410Z,100523.98
2023-04-27T21:46:10.185Z,100523.81
2023-04-27T21:48:55.000Z,100527.96
2023-04-27T21:51:31.385Z,100525.55
2023-04-27T21:53:57.573Z,100528.31
2023-04-27T21:56:23.832Z,100528.00
2023-04-27T21:58:51.586Z,100529.59
2023-04-27T22:01:22.194Z,100530.83
2023-04-27T22:03:53.267Z,100536.88
2023-04-27T22:06:32.924Z,100541.91
2023-04-27T22:09:16.947Z,100542.61
2023-04-27T22:11:43.976Z,100540.58
2023-04-27T22:14:27.669Z,100541.81
2023-04-27T22:16:55.452Z,100545.08
2023-04-27T22:19:19.069Z,100544.40
2023-04-27T22:21:52.138Z,100543.20
2023-04-27T22:24:16.228Z,100541.31
2023-04-27T22:26:42.834Z,100547.02
2023-04-27T22:29:17.026Z,100545.98
2023-04-27T22:31:51.931Z,100546.52
2023-04-27T22:34:18.513Z,100548.25
2023-04-27T22:37:02.284Z,100553.09
2023-04-27T22:39:35.752Z,100552.06
2023-04-27T22:42:02.435Z,100548.77
2023-04-27T22:44:46.686Z,100548.25
2023-04-27T22:47:22.236Z,100544.25
2023-04-27T22:50:00.774Z,100540.77
2023-04-27T22:52:44.844Z,100539.55
2023-04-27T22:55:12.092Z,100546.80
2023-04-27T22:57:36.034Z,100547.48
2023-04-27T23:00:04.984Z,100550.27
2023-04-27T23:02:28.921Z,100550.95
2023-04-27T23:04:55.453Z,100550.79
2023-04-27T23:07:40.538Z,100549.23
2023-04-27T23:10:26.178Z,100551.34
2023-04-27T23:12:54.191Z,100551.91
2023-04-27T23:15:17.889Z,100557.28
2023-04-27T23:17:41.222Z,100557.48
2023-04-27T23:20:24.051Z,100556.47
2023-04-27T23:22:51.251Z,100555.28
2023-04-27T23:25:15.274Z,100552.22
2023-04-27T23:27:56.503Z,100553.65
2023-04-27T23:30:23.272Z,100551.96
2023-04-27T23:33:07.513Z,100555.45
2023-04-27T23:35:45.200Z,100553.80
2023-04-27T23:38:19.848Z,100557.13
2023-04-27T23:41:02.829Z,100554.92
2023-04-27T23:43:45.420Z,100557.54
2023-04-27T23:46:29.418Z,100558.59
2023-04-27T23:49:13.347Z,100556.59
2023-04-27T23:51:57.452Z,100556.63
2023-04-27T23:54:41.139Z,100554.91
2023-04-27T23:57:25.714Z,100554.42
